Kalispell, Montana
Current Conditions -  °F | °C
As of 2:55 PM on Monday 20 Oct 2014 (Local Time) from KGPI Reporting Station
Clear Clear  
Wind Chill: 20°   Ceiling: Unl
Heat Index: 20°   Visibility: 10mi
Dew Point:   Wind: 0mph
Humidity: 37%   Direction: NA
Pressure: 29.76"   Gusts: NA
Location:  48.2°N, 114.31°W
Report Text: KGPI 202055Z 00000KT 10SM CLR 20/05 A2976 RMK AO2 SLP080 T02000050 58025
Loading
Personal Weather Stations






























Interactive Weather Map
Tropical Storm Tracking
New forecast layout! Learn more

10-Day Weather Forecast

Advertisements
Track Severe Weather on mobile